Time;durP1;ratioP1;P1;durP2;ratioP2;P2;SDS_P1;SDS_P2;PMS_P1;PMS_P2;Temp;Humidity;BMP_temperature;BMP_pressure;BME280_temperature;BME280_humidity;BME280_pressure;Samples;Min_cycle;Max_cycle;Signal;HPM_P1;HPM_P2
2022/07/20 00:02:02;;;;;;;7.20;5.30;;;;;;;;;;5079545;28;20422;-73
2022/07/20 00:04:28;;;;;;;5.85;4.60;;;;;;;;;;5079616;28;20067;-74
2022/07/20 00:06:54;;;;;;;5.25;4.35;;;;;;;;;;5079975;28;20025;-73
2022/07/20 00:12:04;;;;;;;5.47;4.30;;;;;;;;;;5079665;28;20032;-74
2022/07/20 00:14:30;;;;;;;6.75;4.72;;;;;;;;;;5078618;28;20025;-73
2022/07/20 00:16:56;;;;;;;6.95;4.80;;;;;;;;;;5076416;28;20028;-73
2022/07/20 00:19:21;;;;;;;5.32;4.28;;;;;;;;;;5076441;28;20012;-73
2022/07/20 00:21:47;;;;;;;4.97;4.15;;;;;;;;;;5058365;28;20032;-73
2022/07/20 00:24:12;;;;;;;5.63;3.80;;;;;;;;;;5076007;28;20630;-74
2022/07/20 00:26:38;;;;;;;5.65;3.80;;;;;;;;;;5076139;28;20035;-74
2022/07/20 00:29:03;;;;;;;5.35;3.90;;;;;;;;;;5058115;28;20020;-74
2022/07/20 00:31:29;;;;;;;4.60;3.75;;;;;;;;;;5076363;28;20024;-73
2022/07/20 00:33:54;;;;;;;4.00;3.67;;;;;;;;;;5076374;28;20411;-74
2022/07/20 00:36:20;;;;;;;5.15;3.63;;;;;;;;;;5076126;28;20035;-74
2022/07/20 00:38:45;;;;;;;3.97;3.58;;;;;;;;;;5076065;28;20051;-73
2022/07/20 00:41:13;;;;;;;5.82;4.03;;;;;;;;;;5075825;28;20061;-73
2022/07/20 00:43:57;;;;;;;5.10;3.83;;;;;;;;;;5075988;28;20067;-72
2022/07/20 00:46:26;;;;;;;5.22;3.95;;;;;;;;;;5075858;28;20033;-73
2022/07/20 00:48:52;;;;;;;6.95;4.15;;;;;;;;;;5075732;28;20023;-73
2022/07/20 00:51:17;;;;;;;5.28;4.05;;;;;;;;;;5075830;28;20025;-73
2022/07/20 00:53:43;;;;;;;5.57;4.40;;;;;;;;;;5075676;28;20021;-73
2022/07/20 00:56:09;;;;;;;5.70;4.03;;;;;;;;;;5075607;28;20425;-73
2022/07/20 00:58:35;;;;;;;4.80;3.83;;;;;;;;;;5076045;28;20024;-73
2022/07/20 01:01:00;;;;;;;4.30;3.85;;;;;;;;;;5057468;28;20024;-73
2022/07/20 01:03:26;;;;;;;4.20;3.80;;;;;;;;;;5075595;28;20371;-73
2022/07/20 01:05:52;;;;;;;4.25;3.63;;;;;;;;;;5075403;28;20033;-72
2022/07/20 01:08:18;;;;;;;8.13;4.25;;;;;;;;;;5057745;28;20081;-72
2022/07/20 01:10:43;;;;;;;5.50;3.65;;;;;;;;;;5057397;28;20422;-73
2022/07/20 01:13:08;;;;;;;4.70;3.38;;;;;;;;;;5075406;28;20019;-72
2022/07/20 01:15:34;;;;;;;4.07;3.35;;;;;;;;;;5057240;28;20028;-72
2022/07/20 01:17:59;;;;;;;6.25;3.70;;;;;;;;;;5057273;28;20023;-73
2022/07/20 01:20:25;;;;;;;4.95;3.97;;;;;;;;;;5075735;28;20021;-72
2022/07/20 01:22:52;;;;;;;5.40;4.03;;;;;;;;;;5056963;28;20076;-72
2022/07/20 01:25:17;;;;;;;4.22;3.65;;;;;;;;;;5075564;28;20025;-72
2022/07/20 01:27:43;;;;;;;5.18;4.00;;;;;;;;;;5073845;28;20025;-73
2022/07/20 01:30:09;;;;;;;5.63;3.83;;;;;;;;;;5074997;28;20033;-73
2022/07/20 01:32:34;;;;;;;6.13;3.75;;;;;;;;;;5056945;28;20095;-73
2022/07/20 01:35:00;;;;;;;5.28;3.95;;;;;;;;;;5056951;28;20542;-73
2022/07/20 01:37:25;;;;;;;4.22;3.67;;;;;;;;;;5074721;28;20452;-73
2022/07/20 01:39:51;;;;;;;6.82;3.95;;;;;;;;;;5074949;28;20025;-73
2022/07/20 01:42:16;;;;;;;4.05;3.67;;;;;;;;;;5074691;28;20020;-74
2022/07/20 01:44:42;;;;;;;5.60;3.97;;;;;;;;;;5074704;28;20051;-73
2022/07/20 01:47:07;;;;;;;5.32;3.80;;;;;;;;;;5075072;28;20021;-73
2022/07/20 01:49:32;;;;;;;5.18;3.63;;;;;;;;;;5074656;28;20033;-73
2022/07/20 01:51:58;;;;;;;5.95;3.63;;;;;;;;;;5074459;28;20526;-73
2022/07/20 01:54:23;;;;;;;5.18;3.75;;;;;;;;;;5057442;28;20127;-73
2022/07/20 01:56:49;;;;;;;5.88;3.75;;;;;;;;;;5056946;28;20020;-73
2022/07/20 01:59:14;;;;;;;3.60;3.30;;;;;;;;;;5074506;28;20020;-73
2022/07/20 02:01:40;;;;;;;6.40;4.65;;;;;;;;;;5074206;28;20437;-74
2022/07/20 02:04:05;;;;;;;6.57;3.92;;;;;;;;;;5074294;28;20036;-74
2022/07/20 02:06:31;;;;;;;5.10;3.83;;;;;;;;;;5074382;28;20024;-73
2022/07/20 02:08:56;;;;;;;4.30;3.78;;;;;;;;;;5074524;28;20016;-73
2022/07/20 02:11:22;;;;;;;4.07;3.67;;;;;;;;;;5074507;28;20092;-73
2022/07/20 02:13:47;;;;;;;3.97;3.58;;;;;;;;;;5074221;28;20060;-73
2022/07/20 02:16:16;;;;;;;4.10;3.70;;;;;;;;;;5074448;28;20032;-73
2022/07/20 02:18:42;;;;;;;4.20;3.58;;;;;;;;;;5074195;28;20107;-73
2022/07/20 02:21:07;;;;;;;4.82;3.20;;;;;;;;;;5074215;28;20553;-72
2022/07/20 02:23:33;;;;;;;4.82;3.60;;;;;;;;;;5073804;28;20049;-73
2022/07/20 02:25:58;;;;;;;5.05;4.03;;;;;;;;;;5056154;28;20056;-73
2022/07/20 02:28:24;;;;;;;6.82;3.40;;;;;;;;;;5074312;28;20029;-73
2022/07/20 02:30:49;;;;;;;5.55;4.07;;;;;;;;;;5073996;28;20016;-73
2022/07/20 02:33:14;;;;;;;6.97;4.00;;;;;;;;;;5073897;28;20078;-73
2022/07/20 02:35:40;;;;;;;5.38;3.75;;;;;;;;;;5055850;28;20472;-73
2022/07/20 02:38:05;;;;;;;9.55;4.47;;;;;;;;;;5055361;28;20384;-73
2022/07/20 02:40:31;;;;;;;4.75;3.60;;;;;;;;;;5074289;28;20055;-74
2022/07/20 02:42:56;;;;;;;5.18;3.92;;;;;;;;;;5073534;28;20035;-73
2022/07/20 02:45:24;;;;;;;7.18;3.80;;;;;;;;;;5055686;28;20016;-74
2022/07/20 02:47:50;;;;;;;5.20;3.88;;;;;;;;;;5055680;28;20024;-73
2022/07/20 02:50:15;;;;;;;6.75;4.00;;;;;;;;;;5074002;28;20093;-73
2022/07/20 02:52:42;;;;;;;3.97;3.65;;;;;;;;;;5074299;28;20060;-74
2022/07/20 02:55:08;;;;;;;4.53;3.63;;;;;;;;;;5073585;28;20031;-74
2022/07/20 02:57:33;;;;;;;5.38;3.63;;;;;;;;;;5073549;28;20388;-74
2022/07/20 02:59:59;;;;;;;8.13;3.42;;;;;;;;;;5073679;28;20073;-74
2022/07/20 03:02:24;;;;;;;5.78;3.42;;;;;;;;;;5055579;28;20036;-74
2022/07/20 03:04:50;;;;;;;5.22;3.50;;;;;;;;;;5073968;28;20047;-74
2022/07/20 03:07:16;;;;;;;4.45;3.60;;;;;;;;;;5073610;28;20423;-74
2022/07/20 03:09:42;;;;;;;6.10;4.15;;;;;;;;;;5055449;28;20427;-74
2022/07/20 03:12:10;;;;;;;7.82;4.15;;;;;;;;;;5073366;28;20032;-74
2022/07/20 03:14:35;;;;;;;8.85;4.05;;;;;;;;;;5073356;28;20118;-73
2022/07/20 03:17:01;;;;;;;7.00;3.80;;;;;;;;;;5073345;28;20078;-73
2022/07/20 03:19:26;;;;;;;9.25;3.95;;;;;;;;;;5073558;28;20058;-73
2022/07/20 03:21:51;;;;;;;4.75;3.85;;;;;;;;;;5055209;28;20087;-73
2022/07/20 03:24:17;;;;;;;5.38;4.03;;;;;;;;;;5073544;28;20090;-73
2022/07/20 03:26:42;;;;;;;6.55;3.47;;;;;;;;;;5073214;28;20535;-73
2022/07/20 03:29:08;;;;;;;4.68;3.85;;;;;;;;;;5073208;28;20031;-73
2022/07/20 03:31:33;;;;;;;6.57;3.67;;;;;;;;;;5055834;28;20086;-73
2022/07/20 03:33:58;;;;;;;4.30;3.50;;;;;;;;;;5055178;28;20043;-73
2022/07/20 03:36:24;;;;;;;6.90;4.07;;;;;;;;;;5073099;28;20040;-73
2022/07/20 03:38:50;;;;;;;5.38;3.72;;;;;;;;;;5073213;28;20059;-73
2022/07/20 03:41:15;;;;;;;9.70;3.72;;;;;;;;;;5055794;28;20514;-73
2022/07/20 03:43:40;;;;;;;5.38;3.55;;;;;;;;;;5073289;28;20016;-73
2022/07/20 03:46:06;;;;;;;5.18;3.90;;;;;;;;;;5073007;28;20024;-73
2022/07/20 03:48:31;;;;;;;4.20;3.80;;;;;;;;;;5073341;28;20065;-73
2022/07/20 03:50:57;;;;;;;5.97;3.53;;;;;;;;;;5074925;28;20389;-73
2022/07/20 03:53:22;;;;;;;4.28;3.88;;;;;;;;;;5077018;28;20025;-73
2022/07/20 03:55:48;;;;;;;5.47;4.15;;;;;;;;;;5077049;28;20028;-72
2022/07/20 03:58:13;;;;;;;4.90;3.72;;;;;;;;;;5077088;28;20488;-73
2022/07/20 04:00:39;;;;;;;5.38;3.85;;;;;;;;;;5076912;28;20094;-73
2022/07/20 04:03:05;;;;;;;5.47;3.47;;;;;;;;;;5041882;28;20031;-73
2022/07/20 04:05:30;;;;;;;7.85;4.18;;;;;;;;;;5058602;28;20118;-74
2022/07/20 04:07:56;;;;;;;4.80;3.88;;;;;;;;;;5076949;28;20063;-74
2022/07/20 04:10:21;;;;;;;6.38;4.13;;;;;;;;;;5076475;28;20528;-73
2022/07/20 04:12:46;;;;;;;7.55;3.90;;;;;;;;;;5076327;28;20632;-73
2022/07/20 04:15:12;;;;;;;6.20;3.92;;;;;;;;;;5058412;28;20480;-74
2022/07/20 04:17:39;;;;;;;6.20;3.58;;;;;;;;;;5041721;28;20024;-74
2022/07/20 04:20:05;;;;;;;4.50;4.00;;;;;;;;;;5075921;28;20029;-74
2022/07/20 04:22:31;;;;;;;7.20;3.75;;;;;;;;;;5076365;28;20020;-73
2022/07/20 04:24:56;;;;;;;7.88;4.03;;;;;;;;;;5056767;28;20081;-74
2022/07/20 04:27:22;;;;;;;4.72;3.65;;;;;;;;;;5076366;28;20042;-74
2022/07/20 04:29:47;;;;;;;8.00;4.55;;;;;;;;;;5058609;28;20032;-74
2022/07/20 04:32:12;;;;;;;6.65;5.05;;;;;;;;;;5076770;28;20546;-74
2022/07/20 04:34:38;;;;;;;8.30;4.65;;;;;;;;;;5058499;28;20041;-74
2022/07/20 04:37:04;;;;;;;7.22;4.85;;;;;;;;;;5075492;28;20024;-74
2022/07/20 04:39:30;;;;;;;8.10;4.35;;;;;;;;;;5056924;28;20032;-74
2022/07/20 04:41:55;;;;;;;7.13;4.18;;;;;;;;;;5074801;28;20021;-75
2022/07/20 04:44:20;;;;;;;8.25;4.45;;;;;;;;;;5074432;28;20635;-75
2022/07/20 04:46:46;;;;;;;6.30;4.68;;;;;;;;;;5056751;28;20017;-75
2022/07/20 04:49:12;;;;;;;7.18;4.28;;;;;;;;;;5074539;28;20032;-75
2022/07/20 04:51:37;;;;;;;4.32;3.90;;;;;;;;;;5074520;28;20036;-75
2022/07/20 04:54:03;;;;;;;6.97;4.60;;;;;;;;;;5074937;28;20036;-74
2022/07/20 04:56:29;;;;;;;6.75;4.55;;;;;;;;;;5057611;28;20345;-75
2022/07/20 04:58:55;;;;;;;7.60;4.53;;;;;;;;;;5076028;28;20074;-75
2022/07/20 05:01:22;;;;;;;7.25;4.30;;;;;;;;;;5075685;28;20056;-74
2022/07/20 05:03:47;;;;;;;28.23;11.43;;;;;;;;;;5075572;28;20089;-75
2022/07/20 05:06:12;;;;;;;17.60;8.95;;;;;;;;;;5058160;28;20013;-74
2022/07/20 05:08:38;;;;;;;9.88;5.88;;;;;;;;;;5074824;28;20036;-74
2022/07/20 05:11:03;;;;;;;6.18;4.75;;;;;;;;;;5074632;28;20031;-74
2022/07/20 05:13:29;;;;;;;11.35;5.72;;;;;;;;;;5074689;28;20028;-75
2022/07/20 05:15:54;;;;;;;6.50;4.57;;;;;;;;;;5075156;28;20020;-74
2022/07/20 05:18:20;;;;;;;5.18;4.40;;;;;;;;;;5075738;28;20056;-75
2022/07/20 05:20:45;;;;;;;5.97;4.18;;;;;;;;;;5075543;28;20020;-74
2022/07/20 05:23:11;;;;;;;7.03;4.45;;;;;;;;;;5073878;28;20036;-73
2022/07/20 05:25:39;;;;;;;5.03;4.30;;;;;;;;;;5074166;28;20029;-74
2022/07/20 05:28:05;;;;;;;8.85;5.15;;;;;;;;;;5074014;28;20033;-74
2022/07/20 05:30:31;;;;;;;8.95;5.32;;;;;;;;;;5056226;28;20055;-74
2022/07/20 05:32:56;;;;;;;6.03;4.70;;;;;;;;;;5056315;28;20055;-74
2022/07/20 05:35:22;;;;;;;11.82;7.28;;;;;;;;;;5074277;28;20038;-74
2022/07/20 05:37:47;;;;;;;17.92;10.25;;;;;;;;;;5074267;28;20043;-74
2022/07/20 05:40:13;;;;;;;11.60;8.25;;;;;;;;;;5073930;28;20035;-75
2022/07/20 05:42:39;;;;;;;10.55;6.68;;;;;;;;;;5073239;28;20119;-80
2022/07/20 05:45:04;;;;;;;9.95;5.18;;;;;;;;;;5073666;28;20029;-78
2022/07/20 05:47:30;;;;;;;9.05;5.20;;;;;;;;;;5073562;28;20020;-74
2022/07/20 05:49:57;;;;;;;6.57;4.63;;;;;;;;;;5055616;28;20023;-74
2022/07/20 05:52:22;;;;;;;7.10;4.70;;;;;;;;;;5073456;28;20123;-74
2022/07/20 05:54:47;;;;;;;9.25;5.15;;;;;;;;;;5073411;28;20056;-74
2022/07/20 05:57:13;;;;;;;7.32;4.85;;;;;;;;;;5055521;28;20511;-74
2022/07/20 05:59:38;;;;;;;8.35;5.03;;;;;;;;;;5073497;28;20021;-75
2022/07/20 06:02:04;;;;;;;7.82;4.95;;;;;;;;;;5055359;28;20040;-74
2022/07/20 06:04:29;;;;;;;7.55;5.18;;;;;;;;;;5073232;28;20021;-74
2022/07/20 06:06:54;;;;;;;8.18;4.80;;;;;;;;;;5073148;28;20029;-74
2022/07/20 06:09:20;;;;;;;7.80;4.95;;;;;;;;;;5073229;28;20012;-75
2022/07/20 06:11:46;;;;;;;7.63;4.60;;;;;;;;;;5073251;28;20028;-74
2022/07/20 06:14:12;;;;;;;6.82;4.72;;;;;;;;;;5073774;28;20020;-74
2022/07/20 06:16:37;;;;;;;7.55;5.07;;;;;;;;;;5074052;28;20425;-75
2022/07/20 06:19:02;;;;;;;8.55;5.80;;;;;;;;;;5074044;28;20205;-75
2022/07/20 06:21:28;;;;;;;11.48;5.57;;;;;;;;;;5073910;28;20484;-75
2022/07/20 06:23:53;;;;;;;10.82;5.53;;;;;;;;;;5073840;28;20089;-75
2022/07/20 06:26:21;;;;;;;8.07;4.82;;;;;;;;;;5073894;28;20488;-75
2022/07/20 06:28:46;;;;;;;7.70;4.78;;;;;;;;;;5073864;28;20021;-75
2022/07/20 06:31:11;;;;;;;7.78;4.85;;;;;;;;;;5074133;28;20044;-75
2022/07/20 06:33:37;;;;;;;8.65;5.20;;;;;;;;;;5073804;28;20102;-74
2022/07/20 06:36:02;;;;;;;7.35;5.22;;;;;;;;;;5073844;28;20506;-75
2022/07/20 06:38:28;;;;;;;10.13;4.97;;;;;;;;;;5055818;28;20375;-75
2022/07/20 06:40:53;;;;;;;6.80;5.30;;;;;;;;;;5073764;28;20085;-75
2022/07/20 06:43:18;;;;;;;7.72;4.75;;;;;;;;;;5055873;28;20088;-74
2022/07/20 06:45:45;;;;;;;6.30;5.00;;;;;;;;;;5074241;28;20020;-73
2022/07/20 06:48:10;;;;;;;10.25;5.55;;;;;;;;;;5073528;28;20008;-73
2022/07/20 06:50:36;;;;;;;11.63;5.13;;;;;;;;;;5056328;28;20078;-73
2022/07/20 06:53:01;;;;;;;9.55;5.13;;;;;;;;;;5074140;28;20028;-74
2022/07/20 06:55:27;;;;;;;6.38;4.68;;;;;;;;;;5073313;28;20028;-73
2022/07/20 06:57:52;;;;;;;9.73;5.35;;;;;;;;;;5073161;28;20017;-73
2022/07/20 07:00:17;;;;;;;9.48;4.90;;;;;;;;;;5073503;28;20116;-73
2022/07/20 07:02:43;;;;;;;12.98;5.53;;;;;;;;;;5073155;28;20119;-73
2022/07/20 07:05:08;;;;;;;8.00;4.88;;;;;;;;;;5073196;28;20032;-73
2022/07/20 07:07:34;;;;;;;8.40;4.82;;;;;;;;;;5073295;28;20051;-73
2022/07/20 07:09:59;;;;;;;8.02;5.38;;;;;;;;;;5073351;28;20522;-73
2022/07/20 07:12:25;;;;;;;8.80;4.78;;;;;;;;;;5073709;28;20028;-73
2022/07/20 07:14:50;;;;;;;9.45;4.82;;;;;;;;;;5073662;28;20024;-73
2022/07/20 07:17:16;;;;;;;11.30;5.55;;;;;;;;;;5073366;28;20460;-73
2022/07/20 07:19:41;;;;;;;6.43;5.05;;;;;;;;;;5073610;28;20035;-73
2022/07/20 07:22:06;;;;;;;9.10;5.18;;;;;;;;;;5073548;28;20074;-74
2022/07/20 07:24:32;;;;;;;7.88;5.13;;;;;;;;;;5056604;28;20484;-73
2022/07/20 07:26:57;;;;;;;10.07;5.47;;;;;;;;;;5077316;28;20082;-73
2022/07/20 07:29:23;;;;;;;10.18;5.38;;;;;;;;;;5059776;28;20028;-73
2022/07/20 07:31:48;;;;;;;9.70;5.05;;;;;;;;;;5077221;28;20028;-73
2022/07/20 07:34:14;;;;;;;7.80;5.78;;;;;;;;;;5077458;28;20039;-73
2022/07/20 07:36:40;;;;;;;11.02;5.13;;;;;;;;;;5077433;28;20107;-73
2022/07/20 07:39:05;;;;;;;6.88;5.40;;;;;;;;;;5077382;28;20104;-74
2022/07/20 07:41:31;;;;;;;7.07;5.28;;;;;;;;;;5076987;28;20441;-74
2022/07/20 07:43:56;;;;;;;13.77;5.30;;;;;;;;;;5059082;28;20024;-73
2022/07/20 07:46:21;;;;;;;9.13;5.13;;;;;;;;;;5077261;28;20013;-73
2022/07/20 07:48:47;;;;;;;9.80;5.07;;;;;;;;;;5059098;28;20460;-73
2022/07/20 07:51:12;;;;;;;9.02;4.88;;;;;;;;;;5077137;28;20066;-73
2022/07/20 07:53:38;;;;;;;7.38;5.20;;;;;;;;;;5076777;28;20024;-73
2022/07/20 07:56:03;;;;;;;7.57;5.20;;;;;;;;;;5076692;28;20024;-73
2022/07/20 07:58:29;;;;;;;7.55;4.95;;;;;;;;;;5076743;28;20029;-73
2022/07/20 08:00:54;;;;;;;7.90;5.25;;;;;;;;;;5076690;28;20100;-73
2022/07/20 08:03:20;;;;;;;5.57;4.93;;;;;;;;;;5076549;28;20055;-73
2022/07/20 08:05:45;;;;;;;8.63;5.30;;;;;;;;;;5076584;28;20043;-73
2022/07/20 08:08:11;;;;;;;6.07;4.65;;;;;;;;;;5077082;28;20027;-73
2022/07/20 08:10:37;;;;;;;5.68;4.72;;;;;;;;;;5076541;28;20383;-73
2022/07/20 08:13:03;;;;;;;5.43;4.70;;;;;;;;;;5076760;28;20032;-73
2022/07/20 08:15:28;;;;;;;6.45;4.93;;;;;;;;;;5076427;28;20086;-73
2022/07/20 08:17:54;;;;;;;7.03;4.95;;;;;;;;;;5058479;28;20033;-73
2022/07/20 08:20:21;;;;;;;6.72;4.82;;;;;;;;;;5076874;28;20054;-73
2022/07/20 08:22:47;;;;;;;5.45;4.80;;;;;;;;;;5076012;28;20090;-73
2022/07/20 08:25:13;;;;;;;6.80;4.70;;;;;;;;;;5076289;28;20384;-73
2022/07/20 08:27:38;;;;;;;5.97;4.40;;;;;;;;;;5076451;28;20102;-73
2022/07/20 08:30:04;;;;;;;6.75;4.55;;;;;;;;;;5076162;28;20388;-73
2022/07/20 08:32:34;;;;;;;11.65;5.20;;;;;;;;;;5076089;28;20161;-74
2022/07/20 08:35:00;;;;;;;5.40;4.20;;;;;;;;;;5076677;28;20062;-73
2022/07/20 08:37:26;;;;;;;4.45;3.95;;;;;;;;;;5057792;28;20025;-73
2022/07/20 08:39:52;;;;;;;6.85;4.15;;;;;;;;;;5058740;28;20036;-73
2022/07/20 08:42:17;;;;;;;4.90;3.95;;;;;;;;;;5076140;28;20024;-73
2022/07/20 08:44:43;;;;;;;6.10;4.20;;;;;;;;;;5075894;28;20478;-73
2022/07/20 08:47:12;;;;;;;4.60;3.97;;;;;;;;;;5058073;28;20074;-73
2022/07/20 08:49:47;;;;;;;5.50;4.20;;;;;;;;;;5076370;28;20033;-73
2022/07/20 08:52:13;;;;;;;6.75;4.15;;;;;;;;;;5076082;28;20028;-73
2022/07/20 08:54:40;;;;;;;5.53;4.78;;;;;;;;;;5075735;28;20078;-73
2022/07/20 08:57:14;;;;;;;4.32;3.50;;;;;;;;;;5075942;28;20032;-73
2022/07/20 08:59:40;;;;;;;4.95;3.70;;;;;;;;;;5075876;28;20029;-74
2022/07/20 09:02:08;;;;;;;3.92;3.35;;;;;;;;;;5057489;28;20032;-73
2022/07/20 09:04:48;;;;;;;4.22;3.92;;;;;;;;;;5058427;28;20342;-73
2022/07/20 09:07:13;;;;;;;5.50;3.70;;;;;;;;;;5075476;28;20078;-73
2022/07/20 09:09:39;;;;;;;4.20;3.78;;;;;;;;;;5075399;28;20376;-73
2022/07/20 09:12:04;;;;;;;5.72;3.65;;;;;;;;;;5075602;28;20043;-73
2022/07/20 09:14:35;;;;;;;4.95;3.67;;;;;;;;;;5075604;28;20023;-73
2022/07/20 09:17:13;;;;;;;4.68;3.67;;;;;;;;;;5075793;28;20035;-73
2022/07/20 09:19:55;;;;;;;6.00;3.67;;;;;;;;;;5075453;28;20033;-73
2022/07/20 09:22:30;;;;;;;5.15;4.28;;;;;;;;;;5075402;28;20033;-73
2022/07/20 09:25:13;;;;;;;4.25;3.80;;;;;;;;;;5075345;28;20025;-73
2022/07/20 09:27:39;;;;;;;4.72;3.67;;;;;;;;;;5057517;28;20036;-73
2022/07/20 09:30:10;;;;;;;4.13;3.70;;;;;;;;;;5057114;28;20024;-73
2022/07/20 09:32:50;;;;;;;4.30;4.00;;;;;;;;;;5075241;28;20025;-73
2022/07/20 09:35:15;;;;;;;5.78;3.88;;;;;;;;;;5075413;28;20036;-73
2022/07/20 09:37:42;;;;;;;6.50;4.25;;;;;;;;;;5075127;28;20024;-73
2022/07/20 09:40:08;;;;;;;5.68;3.95;;;;;;;;;;5074801;28;20473;-73
2022/07/20 09:42:37;;;;;;;4.32;3.92;;;;;;;;;;5075224;28;20032;-73
2022/07/20 09:45:19;;;;;;;7.82;3.33;;;;;;;;;;5057437;28;20380;-73
2022/07/20 09:48:05;;;;;;;8.93;4.13;;;;;;;;;;5073924;28;20372;-73
2022/07/20 09:50:32;;;;;;;4.70;4.03;;;;;;;;;;5074871;28;20024;-73
2022/07/20 09:52:57;;;;;;;6.90;4.03;;;;;;;;;;5056726;28;20023;-73
2022/07/20 09:55:24;;;;;;;5.03;3.78;;;;;;;;;;5074424;28;20032;-73
2022/07/20 09:57:53;;;;;;;3.95;3.58;;;;;;;;;;5074741;28;20021;-73
2022/07/20 10:00:19;;;;;;;6.72;4.00;;;;;;;;;;5074676;28;20028;-73
2022/07/20 10:02:48;;;;;;;4.25;3.60;;;;;;;;;;5074545;28;20030;-73
2022/07/20 10:05:16;;;;;;;7.05;3.70;;;;;;;;;;5074587;28;20036;-73
2022/07/20 10:07:43;;;;;;;4.15;3.72;;;;;;;;;;5074803;28;20099;-73
2022/07/20 10:10:09;;;;;;;8.10;3.90;;;;;;;;;;5074201;28;20025;-73
2022/07/20 10:12:34;;;;;;;7.47;3.60;;;;;;;;;;5056289;28;20082;-73
2022/07/20 10:15:00;;;;;;;4.07;3.65;;;;;;;;;;5074125;28;20033;-73
2022/07/20 10:17:29;;;;;;;3.78;3.13;;;;;;;;;;5074128;28;20042;-73
2022/07/20 10:19:55;;;;;;;6.00;3.65;;;;;;;;;;5074315;28;20115;-73
2022/07/20 10:22:20;;;;;;;4.45;3.45;;;;;;;;;;5055997;28;20426;-73
2022/07/20 10:24:47;;;;;;;3.70;3.28;;;;;;;;;;5074478;28;20036;-73
2022/07/20 10:27:15;;;;;;;4.22;3.00;;;;;;;;;;5073985;28;20384;-73
2022/07/20 10:29:43;;;;;;;5.07;3.25;;;;;;;;;;5074168;28;20115;-73
2022/07/20 10:32:14;;;;;;;3.15;2.95;;;;;;;;;;5056016;28;20147;-73
2022/07/20 10:34:41;;;;;;;3.60;3.30;;;;;;;;;;5074149;28;20464;-73
2022/07/20 10:37:18;;;;;;;3.67;3.10;;;;;;;;;;5073794;28;20024;-73
2022/07/20 10:39:47;;;;;;;4.60;3.60;;;;;;;;;;5074045;28;20081;-73
2022/07/20 10:42:33;;;;;;;6.32;3.65;;;;;;;;;;5056396;28;20100;-73
2022/07/20 10:45:19;;;;;;;3.70;3.30;;;;;;;;;;5073945;28;20154;-73
2022/07/20 10:47:45;;;;;;;4.80;3.17;;;;;;;;;;5074254;28;20025;-73
2022/07/20 10:50:20;;;;;;;4.10;3.60;;;;;;;;;;5073652;28;20027;-73
2022/07/20 10:52:46;;;;;;;6.97;3.70;;;;;;;;;;5074151;28;20040;-73
2022/07/20 10:55:30;;;;;;;5.38;3.83;;;;;;;;;;5073605;28;20055;-73
2022/07/20 10:57:55;;;;;;;4.38;3.70;;;;;;;;;;5073573;28;20032;-73
2022/07/20 11:00:20;;;;;;;4.53;3.35;;;;;;;;;;5073534;28;20372;-73
2022/07/20 11:02:46;;;;;;;3.83;3.42;;;;;;;;;;5073981;28;20060;-73
2022/07/20 11:05:19;;;;;;;3.80;3.17;;;;;;;;;;5073508;28;20521;-73
2022/07/20 11:07:45;;;;;;;3.55;3.22;;;;;;;;;;5055468;28;20399;-73
2022/07/20 11:10:20;;;;;;;4.13;3.72;;;;;;;;;;5073468;28;20017;-73
2022/07/20 11:12:53;;;;;;;4.88;3.72;;;;;;;;;;5073404;28;20029;-73
2022/07/20 11:15:19;;;;;;;3.58;3.30;;;;;;;;;;5073690;28;20032;-73
2022/07/20 11:17:44;;;;;;;4.32;3.55;;;;;;;;;;5073385;28;20035;-73
2022/07/20 11:20:10;;;;;;;3.80;3.40;;;;;;;;;;5055836;28;20110;-73
2022/07/20 11:22:35;;;;;;;5.22;4.10;;;;;;;;;;5073606;28;20045;-73
2022/07/20 11:25:01;;;;;;;5.50;3.28;;;;;;;;;;5073596;28;20090;-73
2022/07/20 11:27:26;;;;;;;5.07;4.32;;;;;;;;;;5073555;28;20025;-73
2022/07/20 11:29:52;;;;;;;5.53;3.92;;;;;;;;;;5055285;28;20032;-73
2022/07/20 11:32:18;;;;;;;4.30;3.92;;;;;;;;;;5054925;28;20031;-73
2022/07/20 11:34:48;;;;;;;4.20;3.80;;;;;;;;;;5071658;28;20033;-73
2022/07/20 11:37:14;;;;;;;4.22;3.83;;;;;;;;;;5054384;28;20472;-73
2022/07/20 11:39:39;;;;;;;4.03;3.65;;;;;;;;;;5072088;28;20052;-73
2022/07/20 11:42:14;;;;;;;3.85;3.17;;;;;;;;;;5072048;28;20059;-73
2022/07/20 11:44:41;;;;;;;3.10;2.75;;;;;;;;;;5072127;28;20037;-74
2022/07/20 11:47:07;;;;;;;3.60;3.30;;;;;;;;;;5072065;28;20024;-74
2022/07/20 11:49:33;;;;;;;4.82;3.20;;;;;;;;;;5072091;28;20029;-75
2022/07/20 11:51:59;;;;;;;4.45;3.58;;;;;;;;;;5072066;28;20020;-74
2022/07/20 11:54:26;;;;;;;5.10;4.60;;;;;;;;;;5072039;28;20032;-74
2022/07/20 11:56:52;;;;;;;4.07;3.63;;;;;;;;;;5072006;28;20077;-74
2022/07/20 11:59:18;;;;;;;5.15;3.50;;;;;;;;;;5072274;28;20032;-74
2022/07/20 12:01:43;;;;;;;4.57;3.47;;;;;;;;;;5071878;28;20095;-74
2022/07/20 12:04:10;;;;;;;3.40;3.20;;;;;;;;;;5071930;28;20028;-74
2022/07/20 12:06:37;;;;;;;3.50;3.20;;;;;;;;;;5071890;28;20100;-74
2022/07/20 12:09:02;;;;;;;5.72;4.05;;;;;;;;;;5071876;28;20029;-74
2022/07/20 12:11:28;;;;;;;3.80;3.50;;;;;;;;;;5073077;28;20111;-74
2022/07/20 12:13:53;;;;;;;4.75;3.70;;;;;;;;;;5076202;28;20063;-74
2022/07/20 12:16:18;;;;;;;5.00;3.40;;;;;;;;;;5076437;28;20082;-74
2022/07/20 12:18:46;;;;;;;4.95;3.40;;;;;;;;;;5076522;28;20086;-74
2022/07/20 12:21:15;;;;;;;4.47;3.30;;;;;;;;;;5076903;28;20031;-74
2022/07/20 12:23:42;;;;;;;3.67;3.40;;;;;;;;;;5058652;28;20052;-74
2022/07/20 12:26:26;;;;;;;3.53;3.22;;;;;;;;;;5076281;28;20028;-74
2022/07/20 12:28:53;;;;;;;5.22;3.30;;;;;;;;;;5076764;28;20021;-74
2022/07/20 12:31:20;;;;;;;3.53;3.20;;;;;;;;;;5058336;28;20025;-74
2022/07/20 12:34:04;;;;;;;3.30;3.05;;;;;;;;;;5058542;28;20111;-74
2022/07/20 12:36:33;;;;;;;4.80;3.40;;;;;;;;;;5076376;28;20085;-74
2022/07/20 12:39:00;;;;;;;3.58;3.28;;;;;;;;;;5076317;28;20031;-74
2022/07/20 12:41:25;;;;;;;3.55;3.25;;;;;;;;;;5075930;28;20445;-74
2022/07/20 12:43:51;;;;;;;4.65;3.55;;;;;;;;;;5076228;28;20064;-74
2022/07/20 12:46:16;;;;;;;3.40;3.10;;;;;;;;;;5075894;28;20099;-74
2022/07/20 12:48:50;;;;;;;3.13;2.92;;;;;;;;;;5076405;28;20103;-74
2022/07/20 12:51:16;;;;;;;3.75;3.45;;;;;;;;;;5076336;28;20029;-74
2022/07/20 12:53:42;;;;;;;3.78;3.38;;;;;;;;;;5057923;28;20016;-74
2022/07/20 12:56:08;;;;;;;5.47;3.05;;;;;;;;;;5075402;28;20024;-74
2022/07/20 12:58:34;;;;;;;5.80;3.60;;;;;;;;;;5075781;28;20008;-74
2022/07/20 13:01:00;;;;;;;4.00;3.20;;;;;;;;;;5076040;28;20449;-74
2022/07/20 13:03:25;;;;;;;3.60;3.30;;;;;;;;;;5057628;28;20031;-74
2022/07/20 13:05:51;;;;;;;4.18;3.28;;;;;;;;;;5075771;28;20032;-73
2022/07/20 13:08:16;;;;;;;4.47;3.60;;;;;;;;;;5057533;28;20561;-74
2022/07/20 13:10:42;;;;;;;6.28;3.50;;;;;;;;;;5075734;28;20048;-74
2022/07/20 13:13:07;;;;;;;6.35;3.60;;;;;;;;;;5075393;28;20407;-74
2022/07/20 13:15:32;;;;;;;3.92;3.53;;;;;;;;;;5075336;28;20484;-74
2022/07/20 13:17:58;;;;;;;5.20;3.92;;;;;;;;;;5075322;28;20348;-74
2022/07/20 13:20:24;;;;;;;4.07;3.63;;;;;;;;;;5075204;28;20085;-74
2022/07/20 13:22:49;;;;;;;3.90;3.60;;;;;;;;;;5056924;28;20522;-74
2022/07/20 13:25:15;;;;;;;4.63;3.75;;;;;;;;;;5075356;28;20052;-74
2022/07/20 13:27:40;;;;;;;8.57;3.85;;;;;;;;;;5075697;28;20024;-74
2022/07/20 13:30:06;;;;;;;5.15;3.97;;;;;;;;;;5074972;28;20123;-74
2022/07/20 13:32:31;;;;;;;4.45;3.83;;;;;;;;;;5057753;28;20065;-74
2022/07/20 13:34:57;;;;;;;3.95;3.65;;;;;;;;;;5075262;28;20033;-74
2022/07/20 13:37:22;;;;;;;5.78;3.85;;;;;;;;;;5074917;28;20020;-74
2022/07/20 13:39:48;;;;;;;4.78;3.65;;;;;;;;;;5057739;28;20139;-74
2022/07/20 13:42:13;;;;;;;4.28;3.88;;;;;;;;;;5074724;28;20384;-74
2022/07/20 13:44:39;;;;;;;4.43;3.97;;;;;;;;;;5056924;28;20461;-74
2022/07/20 13:47:06;;;;;;;4.43;3.55;;;;;;;;;;5074947;28;20092;-74
2022/07/20 13:49:31;;;;;;;5.53;3.80;;;;;;;;;;5074905;28;20031;-74
2022/07/20 13:51:57;;;;;;;4.05;3.58;;;;;;;;;;5074865;28;20020;-74
2022/07/20 13:54:22;;;;;;;3.92;3.63;;;;;;;;;;5074607;28;20499;-74
2022/07/20 13:56:48;;;;;;;9.88;4.05;;;;;;;;;;5074428;28;20056;-74
2022/07/20 13:59:13;;;;;;;4.22;3.90;;;;;;;;;;5057102;28;20043;-74
2022/07/20 14:01:45;;;;;;;6.30;4.57;;;;;;;;;;5073049;28;20020;-74
2022/07/20 14:04:14;;;;;;;4.53;4.13;;;;;;;;;;5073309;28;20055;-74
2022/07/20 14:06:42;;;;;;;5.22;3.97;;;;;;;;;;5073228;28;20536;-74
2022/07/20 14:09:08;;;;;;;4.50;4.10;;;;;;;;;;5073165;28;20029;-74
2022/07/20 14:11:33;;;;;;;5.57;4.10;;;;;;;;;;5073107;28;20100;-74
2022/07/20 14:14:00;;;;;;;5.45;3.92;;;;;;;;;;5055443;28;20411;-74
2022/07/20 14:16:26;;;;;;;6.47;4.53;;;;;;;;;;5073359;28;20019;-74
2022/07/20 14:18:52;;;;;;;4.18;3.78;;;;;;;;;;5072455;28;20025;-74
2022/07/20 14:21:17;;;;;;;3.95;3.63;;;;;;;;;;5055485;28;20526;-74
2022/07/20 14:23:44;;;;;;;3.78;3.50;;;;;;;;;;5072891;28;20403;-74
2022/07/20 14:26:10;;;;;;;4.28;3.85;;;;;;;;;;5072903;28;20028;-74
2022/07/20 14:28:36;;;;;;;5.72;4.15;;;;;;;;;;5072784;28;20024;-74
2022/07/20 14:31:01;;;;;;;4.85;4.35;;;;;;;;;;5071870;28;20020;-74
2022/07/20 14:33:26;;;;;;;5.03;3.97;;;;;;;;;;5071891;28;20036;-74
2022/07/20 14:35:52;;;;;;;6.18;4.55;;;;;;;;;;5071088;28;20023;-74
2022/07/20 14:38:17;;;;;;;6.55;4.35;;;;;;;;;;5072465;28;20032;-74
2022/07/20 14:40:43;;;;;;;4.72;4.28;;;;;;;;;;5072864;28;20052;-74
2022/07/20 14:43:08;;;;;;;6.18;4.45;;;;;;;;;;5072608;28;20043;-74